Time;durP1;ratioP1;P1;durP2;ratioP2;P2;SDS_P1;SDS_P2;PMS_P1;PMS_P2;Temp;Humidity;BMP_temperature;BMP_pressure;BME280_temperature;BME280_humidity;BME280_pressure;Samples;Min_cycle;Max_cycle;Signal;HPM_P1;HPM_P2
2021/08/30 00:00:06;;;;;;;1.70;1.10;;;;;;;16.33;54.36;99678.03;4997646;28;20050;-86
2021/08/30 00:02:33;;;;;;;3.20;1.13;;;;;;;16.23;55.36;99672.69;4997228;28;20054;-85
2021/08/30 00:05:07;;;;;;;0.95;0.90;;;;;;;16.18;55.33;99672.22;5015611;28;20045;-87
2021/08/30 00:07:34;;;;;;;;;;;;;;;16.21;55.39;99673.78;5015211;28;20143;-87
2021/08/30 00:10:05;;;;;;;1.60;1.00;;;;;;;16.28;55.48;99680.19;5015044;28;19922;-86
2021/08/30 00:12:34;;;;;;;1.70;1.10;;;;;;;16.29;55.17;99673.97;5014875;28;20045;-87
2021/08/30 00:15:01;;;;;;;1.50;0.88;;;;;;;16.31;55.23;99676.50;5015002;28;20052;-85
2021/08/30 00:17:27;;;;;;;1.15;1.05;;;;;;;16.38;55.17;99675.84;5014849;28;20042;-84
2021/08/30 00:19:54;;;;;;;1.48;1.10;;;;;;;16.37;54.84;99679.44;5015477;28;20108;-85
2021/08/30 00:22:21;;;;;;;2.35;1.10;;;;;;;16.35;54.82;99675.25;5014590;28;20042;-86
2021/08/30 00:24:47;;;;;;;3.00;1.27;;;;;;;16.38;54.84;99672.38;5014770;28;20046;-86
2021/08/30 00:27:14;;;;;;;1.60;1.30;;;;;;;16.20;55.88;99680.84;4997143;28;20786;-85
2021/08/30 00:29:41;;;;;;;0.80;0.80;;;;;;;16.12;55.99;99685.88;5014520;28;20050;-84
2021/08/30 00:32:07;;;;;;;4.18;1.38;;;;;;;16.13;56.03;99677.03;5014113;28;20104;-85
2021/08/30 00:34:34;;;;;;;1.33;1.20;;;;;;;16.10;56.65;99674.66;5014110;28;20034;-83
2021/08/30 00:37:01;;;;;;;2.15;1.15;;;;;;;16.18;56.57;99668.75;5013797;28;20113;-83
2021/08/30 00:39:30;;;;;;;4.45;0.98;;;;;;;16.14;56.75;99670.84;5014220;28;20077;-83
2021/08/30 00:41:58;;;;;;;1.70;1.25;;;;;;;16.17;56.79;99673.19;5017607;28;20160;-85
2021/08/30 00:44:25;;;;;;;1.88;1.20;;;;;;;16.30;57.59;99672.16;5031917;28;20045;-85
2021/08/30 00:46:52;;;;;;;2.58;1.15;;;;;;;16.41;56.57;99669.50;5032055;28;20091;-83
2021/08/30 00:49:18;;;;;;;1.67;1.10;;;;;;;16.57;55.29;99669.06;5033865;28;20489;-85
2021/08/30 00:51:45;;;;;;;3.15;1.00;;;;;;;16.62;55.36;99666.84;5034088;28;20041;-85
2021/08/30 00:54:13;;;;;;;0.80;0.80;;;;;;;16.72;55.74;99668.63;5016572;28;20053;-85
2021/08/30 00:56:40;;;;;;;1.20;1.00;;;;;;;16.70;54.89;99660.00;5034063;28;20455;-85
2021/08/30 00:59:09;;;;;;;2.03;1.83;;;;;;;16.80;55.24;99665.34;5034478;28;20095;-86
2021/08/30 01:01:37;;;;;;;4.80;1.00;;;;;;;16.84;54.93;99660.66;5033673;28;20042;-86
2021/08/30 01:04:10;;;;;;;1.40;1.30;;;;;;;16.85;54.63;99664.97;5034084;28;20042;-86
2021/08/30 01:06:45;;;;;;;1.20;0.95;;;;;;;16.74;54.83;99656.19;5033147;28;20072;-85
2021/08/30 01:09:29;;;;;;;1.83;1.33;;;;;;;16.80;54.67;99664.50;5033426;28;20412;-85
2021/08/30 01:12:04;;;;;;;1.02;0.98;;;;;;;16.77;55.27;99660.31;5033379;28;20049;-84
2021/08/30 01:14:46;;;;;;;2.00;1.42;;;;;;;16.65;55.79;99659.53;5033838;28;20104;-83
2021/08/30 01:17:17;;;;;;;5.78;1.17;;;;;;;16.61;56.25;99660.75;5033535;28;20068;-85
2021/08/30 01:20:01;;;;;;;1.17;1.02;;;;;;;16.38;56.97;99667.13;5033465;28;20045;-84
2021/08/30 01:22:31;;;;;;;1.95;1.13;;;;;;;16.27;57.21;99669.81;5032707;28;20047;-84
2021/08/30 01:25:00;;;;;;;1.45;1.00;;;;;;;16.25;56.91;99677.84;5033746;28;20053;-83
2021/08/30 01:27:29;;;;;;;1.35;1.10;;;;;;;16.27;57.15;99677.69;5032836;28;20045;-83
2021/08/30 01:30:07;;;;;;;1.77;1.42;;;;;;;16.21;57.12;99682.50;5033264;28;20451;-83
2021/08/30 01:32:34;;;;;;;1.13;0.98;;;;;;;16.16;57.17;99686.47;5033347;28;20050;-83
2021/08/30 01:35:04;;;;;;;7.85;1.30;;;;;;;16.04;56.92;99677.81;5033433;28;20046;-83
2021/08/30 01:37:33;;;;;;;1.95;1.15;;;;;;;16.14;56.58;99672.59;5033173;28;20045;-85
2021/08/30 01:40:01;;;;;;;0.85;0.85;;;;;;;16.21;55.24;99668.53;5033025;28;20041;-86
2021/08/30 01:42:29;;;;;;;1.23;0.95;;;;;;;16.21;54.38;99672.00;5031764;28;20081;-86
2021/08/30 01:44:58;;;;;;;1.15;1.02;;;;;;;16.28;54.73;99668.84;5033141;28;20099;-86
2021/08/30 01:47:26;;;;;;;1.52;0.93;;;;;;;16.31;54.83;99665.97;5032860;28;20547;-85
2021/08/30 01:50:01;;;;;;;1.10;0.95;;;;;;;16.24;54.78;99674.38;5015021;28;20033;-87
2021/08/30 01:52:39;;;;;;;3.20;1.40;;;;;;;16.07;54.71;99674.91;5033290;28;20495;-86
2021/08/30 02:00:47;;;;;;;1.08;1.00;;;;;;;15.86;56.14;99669.59;5032971;28;20042;-87
2021/08/30 02:03:18;;;;;;;1.30;1.00;;;;;;;15.76;56.75;99659.97;5015358;28;20068;-88
2021/08/30 02:06:14;;;;;;;1.45;0.90;;;;;;;15.73;57.00;99657.59;5032238;28;20045;-84
2021/08/30 02:08:41;;;;;;;1.48;0.90;;;;;;;15.58;57.30;99662.25;5023918;28;20080;-83
2021/08/30 02:11:10;;;;;;;3.53;1.00;;;;;;;15.56;57.62;99651.88;5032094;28;20042;-86
2021/08/30 02:13:37;;;;;;;1.88;1.02;;;;;;;15.69;57.17;99649.13;5031937;28;20451;-85
2021/08/30 02:16:05;;;;;;;1.05;0.80;;;;;;;15.54;57.73;99651.13;5032860;28;20060;-86
2021/08/30 02:18:45;;;;;;;1.40;1.00;;;;;;;15.55;58.08;99649.34;5015470;28;20384;-85
2021/08/30 02:21:23;;;;;;;2.75;1.00;;;;;;;15.64;57.23;99644.22;5032215;28;20037;-86
2021/08/30 02:24:16;;;;;;;1.50;1.23;;;;;;;15.87;56.80;99633.63;5031678;28;20052;-84
2021/08/30 02:27:00;;;;;;;1.50;1.27;;;;;;;15.89;56.48;99634.38;5026906;28;20050;-84
2021/08/30 02:29:33;;;;;;;1.90;1.05;;;;;;;16.00;56.77;99629.06;5032365;28;20480;-88
2021/08/30 02:32:04;;;;;;;1.55;1.00;;;;;;;16.01;55.55;99627.25;5032070;28;20480;-87
2021/08/30 02:34:33;;;;;;;0.80;0.80;;;;;;;16.04;55.25;99627.84;5014392;28;20060;-85
2021/08/30 02:37:02;;;;;;;1.77;0.90;;;;;;;16.31;54.30;99639.69;5032714;28;20068;-85
2021/08/30 02:39:30;;;;;;;2.45;1.92;;;;;;;15.00;60.84;99644.03;5032342;28;20404;-85
2021/08/30 02:41:59;;;;;;;3.03;2.72;;;;;;;14.56;62.89;99637.81;5021703;28;20084;-86
2021/08/30 02:44:26;;;;;;;2.25;2.05;;;;;;;14.65;63.01;99649.41;4998604;28;20489;-86
2021/08/30 02:46:55;;;;;;;3.90;2.92;;;;;;;14.51;63.75;99639.94;5003170;28;20033;-85
2021/08/30 02:49:23;;;;;;;7.82;2.30;;;;;;;14.54;63.46;99646.72;5027909;28;20050;-86
2021/08/30 02:51:51;;;;;;;4.13;2.58;;;;;;;14.54;63.71;99647.59;5012766;28;20054;-87
2021/08/30 02:54:21;;;;;;;3.00;2.40;;;;;;;14.68;63.13;99644.72;5014415;28;20081;-86
2021/08/30 02:56:48;;;;;;;2.17;1.95;;;;;;;14.70;63.44;99654.28;5027635;28;20045;-86
2021/08/30 02:59:15;;;;;;;3.00;2.20;;;;;;;14.58;63.77;99645.56;5016586;28;20073;-86
2021/08/30 03:01:43;;;;;;;3.78;2.25;;;;;;;14.66;63.70;99649.28;5016371;28;20053;-86
2021/08/30 03:04:12;;;;;;;1.95;1.83;;;;;;;14.86;63.01;99649.50;4998505;28;20495;-87
2021/08/30 03:06:40;;;;;;;3.88;2.33;;;;;;;14.85;63.09;99651.31;5017603;28;20565;-87
2021/08/30 03:09:07;;;;;;;2.88;2.10;;;;;;;14.86;62.82;99647.75;5035904;28;20049;-86
2021/08/30 03:11:36;;;;;;;2.83;1.90;;;;;;;14.93;62.50;99642.84;5018924;28;20068;-86
2021/08/30 03:14:03;;;;;;;3.13;2.15;;;;;;;14.90;62.53;99645.72;5030750;28;20037;-84
2021/08/30 03:16:34;;;;;;;2.00;1.70;;;;;;;14.87;62.84;99644.16;5036030;28;20385;-84
2021/08/30 03:19:01;;;;;;;2.20;1.80;;;;;;;14.72;64.01;99640.09;5028300;28;20444;-87
2021/08/30 03:21:29;;;;;;;1.70;1.60;;;;;;;14.43;64.69;99634.41;5015923;28;20053;-85
2021/08/30 03:23:59;;;;;;;1.67;1.58;;;;;;;14.52;64.59;99633.75;5015355;28;20045;-87
2021/08/30 03:26:27;;;;;;;1.52;1.40;;;;;;;14.54;64.42;99636.25;5016320;28;20046;-84
2021/08/30 03:28:58;;;;;;;1.83;1.20;;;;;;;14.62;63.72;99639.97;5014044;28;20038;-86
2021/08/30 03:31:27;;;;;;;2.20;1.40;;;;;;;14.51;64.59;99636.50;5016524;28;20049;-86
2021/08/30 03:33:57;;;;;;;2.15;1.58;;;;;;;14.53;64.48;99638.03;4996341;28;20125;-85
2021/08/30 03:36:24;;;;;;;2.50;1.45;;;;;;;14.41;64.78;99646.81;4996738;28;20441;-85
2021/08/30 03:38:55;;;;;;;3.60;1.00;;;;;;;14.47;64.80;99646.38;5026716;28;20100;-85
2021/08/30 03:41:24;;;;;;;6.60;1.27;;;;;;;14.47;64.47;99643.75;5016171;28;20050;-85
2021/08/30 03:43:52;;;;;;;1.83;1.50;;;;;;;14.43;64.32;99647.50;5014809;28;20045;-85
2021/08/30 03:46:20;;;;;;;1.30;1.10;;;;;;;14.52;64.24;99646.03;5027464;28;20065;-85
2021/08/30 03:48:48;;;;;;;1.58;0.93;;;;;;;14.44;64.70;99651.81;5015863;28;20105;-85
2021/08/30 03:51:15;;;;;;;1.52;1.00;;;;;;;14.32;64.73;99642.25;4997132;28;20430;-86
2021/08/30 03:53:44;;;;;;;5.32;1.38;;;;;;;14.34;64.87;99641.19;5024209;28;20037;-86
2021/08/30 03:56:11;;;;;;;2.15;1.20;;;;;;;14.32;64.77;99642.25;5023004;28;20493;-84
2021/08/30 03:58:39;;;;;;;2.55;1.30;;;;;;;14.25;64.84;99636.63;5015112;28;20065;-84
2021/08/30 04:01:08;;;;;;;1.50;1.30;;;;;;;14.43;64.11;99644.88;5015095;28;20107;-85
2021/08/30 04:03:38;;;;;;;1.70;1.38;;;;;;;14.35;64.59;99642.03;5024764;28;20045;-88
2021/08/30 04:06:08;;;;;;;5.85;1.17;;;;;;;14.44;64.07;99649.22;5013450;28;20053;-89
2021/08/30 04:08:35;;;;;;;1.98;1.20;;;;;;;14.51;63.84;99647.81;5015468;28;20042;-88
2021/08/30 04:11:02;;;;;;;2.22;1.23;;;;;;;14.38;64.24;99647.03;5014548;28;20054;-89
2021/08/30 04:13:31;;;;;;;1.48;1.20;;;;;;;14.49;63.97;99649.72;5014942;28;20124;-89
2021/08/30 04:15:58;;;;;;;1.10;1.00;;;;;;;14.46;63.83;99651.69;5014852;28;20132;-89
2021/08/30 04:18:25;;;;;;;1.15;1.05;;;;;;;14.24;64.64;99649.84;5015724;28;20034;-88
2021/08/30 04:20:51;;;;;;;3.33;1.10;;;;;;;14.32;64.58;99658.81;5015403;28;20045;-89
2021/08/30 04:23:18;;;;;;;2.38;1.52;;;;;;;14.45;64.40;99656.13;5014759;28;20045;-88
2021/08/30 04:25:45;;;;;;;3.45;1.23;;;;;;;14.28;65.21;99662.63;5014887;28;20058;-88
2021/08/30 04:28:12;;;;;;;3.50;1.52;;;;;;;14.34;65.18;99662.16;5015357;28;20045;-89
2021/08/30 04:30:39;;;;;;;1.75;1.50;;;;;;;14.56;64.50;99653.53;5014632;28;20042;-88
2021/08/30 04:33:12;;;;;;;1.65;1.30;;;;;;;14.36;65.14;99662.03;5014163;28;20528;-90
2021/08/30 04:35:39;;;;;;;2.17;1.38;;;;;;;14.54;64.52;99672.97;5014652;28;20065;-87
2021/08/30 04:38:06;;;;;;;2.22;1.27;;;;;;;14.81;63.45;99672.69;5018920;28;20034;-88
2021/08/30 04:40:36;;;;;;;4.35;1.48;;;;;;;14.73;63.62;99669.78;5014801;28;20061;-88
2021/08/30 04:43:03;;;;;;;3.70;1.17;;;;;;;14.93;63.21;99674.34;5017104;28;20046;-89
2021/08/30 04:45:30;;;;;;;3.63;1.20;;;;;;;15.31;61.72;99684.50;5014389;28;20092;-86
2021/08/30 04:47:56;;;;;;;2.10;1.40;;;;;;;15.53;60.37;99688.06;5014295;28;20115;-88
2021/08/30 04:50:23;;;;;;;5.63;1.48;;;;;;;15.53;60.51;99691.50;5014587;28;20125;-89
2021/08/30 04:52:51;;;;;;;2.75;1.35;;;;;;;15.46;60.58;99680.66;5014189;28;20050;-93
2021/08/30 04:55:21;;;;;;;3.28;1.30;;;;;;;15.32;61.29;99685.31;5014510;28;20508;-90
2021/08/30 04:57:48;;;;;;;13.38;4.15;;;;;;;16.02;58.93;99677.06;5014885;28;20496;-93
2021/08/30 05:00:15;;;;;;;5.45;1.73;;;;;;;16.11;58.10;99678.13;5002728;28;20501;-91
2021/08/30 05:02:42;;;;;;;7.55;2.42;;;;;;;16.47;58.07;99674.25;5016341;28;20038;-96
2021/08/30 05:05:09;;;;;;;6.75;1.88;;;;;;;17.49;54.65;99677.81;5017628;28;20660;-90
2021/08/30 05:07:36;;;;;;;4.50;1.48;;;;;;;17.64;53.87;99678.28;5003763;28;20064;-85
2021/08/30 05:10:04;;;;;;;1.60;1.15;;;;;;;16.97;55.04;99685.78;5011771;28;20056;-86
2021/08/30 05:12:30;;;;;;;1.42;1.02;;;;;;;16.35;57.64;99688.41;5007076;28;20047;-85
2021/08/30 05:14:57;;;;;;;4.13;1.55;;;;;;;15.90;59.11;99691.22;5005815;28;20046;-85
2021/08/30 05:17:24;;;;;;;6.35;1.63;;;;;;;15.66;60.49;99684.38;5005442;28;20101;-92
2021/08/30 05:19:51;;;;;;;2.22;1.67;;;;;;;15.95;59.68;99692.53;4992558;28;20065;-88
2021/08/30 05:22:18;;;;;;;2.78;1.75;;;;;;;16.08;58.85;99684.47;4967479;28;20449;-89
2021/08/30 05:24:46;;;;;;;4.40;1.55;;;;;;;16.16;59.58;99686.47;4970381;28;20047;-89
2021/08/30 05:27:12;;;;;;;2.45;1.20;;;;;;;16.00;59.26;99686.91;4967593;28;20441;-87
2021/08/30 05:29:39;;;;;;;3.95;1.42;;;;;;;16.33;58.31;99701.69;4969404;28;20498;-88
2021/08/30 05:32:06;;;;;;;4.88;1.50;;;;;;;16.35;58.10;99696.31;4968588;28;20465;-89
2021/08/30 05:34:33;;;;;;;5.65;1.60;;;;;;;16.15;59.51;99698.78;4962407;28;20043;-89
2021/08/30 05:37:01;;;;;;;3.25;1.38;;;;;;;16.09;60.41;99696.66;4968807;28;20043;-89
2021/08/30 05:39:28;;;;;;;8.73;1.98;;;;;;;16.07;60.46;99695.09;4976587;28;20152;-87
2021/08/30 05:41:56;;;;;;;3.28;1.20;;;;;;;16.06;60.21;99694.28;4972003;28;20043;-88
2021/08/30 05:44:23;;;;;;;4.57;1.50;;;;;;;16.44;58.73;99691.13;4974070;28;20043;-88
2021/08/30 05:46:52;;;;;;;7.20;2.05;;;;;;;15.87;60.22;99697.59;4971533;28;20144;-88
2021/08/30 05:49:19;;;;;;;5.85;3.00;;;;;;;15.80;60.84;99695.56;4969194;28;20117;-87
2021/08/30 05:51:47;;;;;;;3.83;2.63;;;;;;;16.29;59.64;99700.28;4970647;28;20163;-87
2021/08/30 05:54:14;;;;;;;6.25;3.35;;;;;;;16.47;58.91;99697.94;4962667;28;20035;-86
2021/08/30 05:56:41;;;;;;;4.40;3.17;;;;;;;16.41;59.11;99704.53;4965965;28;20076;-84
2021/08/30 05:59:08;;;;;;;7.00;3.30;;;;;;;16.67;58.24;99699.75;4967279;28;20035;-84
2021/08/30 06:01:36;;;;;;;10.32;3.30;;;;;;;17.07;56.85;99696.38;4963324;28;20043;-85
2021/08/30 06:04:04;;;;;;;6.18;3.53;;;;;;;17.31;56.10;99705.75;4970438;28;20047;-87
2021/08/30 06:06:31;;;;;;;6.93;4.30;;;;;;;17.51;55.68;99699.59;4969706;28;20105;-89
2021/08/30 06:08:58;;;;;;;7.30;3.53;;;;;;;17.12;56.27;99696.81;4983419;28;20453;-89
2021/08/30 06:11:25;;;;;;;6.20;3.50;;;;;;;17.24;56.10;99698.38;4986005;28;20046;-87
2021/08/30 06:13:52;;;;;;;8.15;3.13;;;;;;;17.01;56.86;99695.09;4979657;28;20053;-87
2021/08/30 06:16:23;;;;;;;6.90;2.45;;;;;;;17.40;56.11;99694.44;4988408;28;20129;-87
2021/08/30 06:18:51;;;;;;;5.78;2.80;;;;;;;17.34;56.24;99706.34;4989355;28;20089;-89
2021/08/30 06:21:18;;;;;;;3.80;2.72;;;;;;;17.62;55.49;99696.00;4989064;28;20039;-89
2021/08/30 06:23:47;;;;;;;5.43;2.97;;;;;;;17.45;55.88;99708.88;4989968;28;20102;-90
2021/08/30 06:26:14;;;;;;;7.00;3.03;;;;;;;17.79;54.63;99698.88;4992857;28;20073;-88
2021/08/30 06:28:40;;;;;;;5.85;3.33;;;;;;;17.91;54.29;99696.13;4989866;28;20038;-89
2021/08/30 06:31:07;;;;;;;7.60;3.33;;;;;;;18.23;53.39;99704.59;4992507;28;20094;-94
2021/08/30 06:33:36;;;;;;;7.82;2.72;;;;;;;18.23;52.45;99698.50;4992706;28;20042;-96
2021/08/30 06:36:03;;;;;;;9.82;3.40;;;;;;;18.28;52.62;99691.84;4990335;28;20046;-94
2021/08/30 06:38:31;;;;;;;7.38;3.03;;;;;;;18.14;52.96;99700.16;4989843;28;20133;-94
2021/08/30 06:40:58;;;;;;;6.60;3.30;;;;;;;17.74;54.26;99697.63;4989825;28;20042;-93
2021/08/30 06:43:28;;;;;;;4.70;3.55;;;;;;;18.11;53.76;99704.84;4991960;28;20038;-94
2021/08/30 06:45:55;;;;;;;5.70;3.97;;;;;;;18.04;54.30;99694.03;4991125;28;20046;-91
2021/08/30 06:48:22;;;;;;;5.75;3.80;;;;;;;18.41;52.88;99685.44;4993107;28;20045;-92
2021/08/30 06:50:49;;;;;;;12.85;6.10;;;;;;;18.57;51.93;99688.31;4996727;28;20042;-95
2021/08/30 06:53:16;;;;;;;8.35;4.82;;;;;;;18.31;52.64;99686.25;4988595;28;20066;-89
2021/08/30 06:55:42;;;;;;;4.20;3.47;;;;;;;18.42;52.46;99690.56;4991425;28;20117;-88
2021/08/30 06:58:09;;;;;;;8.15;3.58;;;;;;;18.58;52.78;99693.47;4988711;28;20374;-85
2021/08/30 07:00:36;;;;;;;3.92;3.17;;;;;;;18.89;51.36;99687.19;4989444;28;20382;-87
2021/08/30 07:03:03;;;;;;;5.22;3.92;;;;;;;18.86;50.83;99676.91;4989530;28;20093;-83
2021/08/30 07:05:30;;;;;;;10.20;3.75;;;;;;;18.79;50.72;99680.09;4990820;28;20058;-86
2021/08/30 07:07:57;;;;;;;7.15;4.10;;;;;;;18.88;51.04;99678.44;4990496;28;20090;-88
2021/08/30 07:10:23;;;;;;;4.60;4.05;;;;;;;19.25;50.07;99686.34;4983848;28;20052;-88
2021/08/30 07:12:50;;;;;;;13.43;4.38;;;;;;;18.98;50.95;99688.97;4988942;28;20038;-80
2021/08/30 07:15:17;;;;;;;6.25;3.13;;;;;;;19.02;50.48;99679.78;4986357;28;20046;-82
2021/08/30 07:17:44;;;;;;;4.30;2.90;;;;;;;18.80;50.70;99686.22;4983833;28;20529;-85
2021/08/30 07:20:11;;;;;;;14.32;2.92;;;;;;;19.06;50.37;99675.84;4982013;28;20394;-84
2021/08/30 07:22:38;;;;;;;7.40;2.92;;;;;;;19.33;49.59;99688.25;4985590;28;20093;-85
2021/08/30 07:25:08;;;;;;;3.40;2.22;;;;;;;19.65;49.21;99687.84;4985387;28;20038;-84
2021/08/30 07:27:35;;;;;;;3.38;2.53;;;;;;;20.03;48.19;99694.72;4988000;28;20089;-81
2021/08/30 07:30:03;;;;;;;1.98;1.80;;;;;;;19.70;48.78;99696.16;4983970;28;20053;-84
2021/08/30 07:32:30;;;;;;;3.88;2.05;;;;;;;19.52;49.29;99695.28;4983973;28;20050;-84
2021/08/30 07:34:56;;;;;;;3.35;2.50;;;;;;;19.75;49.74;99699.19;4987947;28;20042;-83
2021/08/30 07:37:23;;;;;;;4.65;2.40;;;;;;;19.76;49.78;99695.59;4989089;28;20039;-87
2021/08/30 07:39:50;;;;;;;4.60;2.50;;;;;;;19.68;50.10;99692.84;4983495;28;20038;-85
2021/08/30 07:42:17;;;;;;;3.47;3.17;;;;;;;19.55;52.13;99698.47;4990510;28;20493;-86
2021/08/30 07:44:44;;;;;;;4.53;3.70;;;;;;;19.56;52.33;99694.00;4991998;28;20038;-85
2021/08/30 07:47:12;;;;;;;3.65;2.65;;;;;;;19.31;54.03;99698.97;4992076;28;20089;-89
2021/08/30 07:49:40;;;;;;;3.85;3.45;;;;;;;19.33;54.20;99710.25;4989915;28;20034;-89
2021/08/30 07:52:07;;;;;;;7.72;3.13;;;;;;;19.43;54.04;99704.06;4990091;28;20034;-88
2021/08/30 07:54:35;;;;;;;5.50;3.03;;;;;;;19.72;53.35;99704.81;4987871;28;20041;-88
2021/08/30 07:57:02;;;;;;;5.50;3.25;;;;;;;19.66;53.63;99705.41;4989064;28;20560;-90
2021/08/30 07:59:28;;;;;;;3.50;3.20;;;;;;;19.71;52.97;99708.44;4992596;28;20034;-91
2021/08/30 08:01:55;;;;;;;5.18;4.22;;;;;;;20.06;52.21;99717.38;4989678;28;20045;-88
2021/08/30 08:04:22;;;;;;;3.95;3.55;;;;;;;20.14;51.98;99725.41;4992895;28;20050;-88
2021/08/30 08:06:49;;;;;;;6.97;3.53;;;;;;;20.37;51.67;99729.25;4992030;28;20038;-89
2021/08/30 08:09:16;;;;;;;5.20;3.67;;;;;;;20.73;51.00;99725.78;4993730;28;20054;-86
2021/08/30 08:11:45;;;;;;;4.15;3.38;;;;;;;21.23;49.46;99722.44;4985259;28;20038;-89
2021/08/30 08:14:12;;;;;;;4.82;3.78;;;;;;;21.66;47.81;99718.84;4992525;28;20053;-88
2021/08/30 08:16:39;;;;;;;4.35;3.30;;;;;;;21.84;47.20;99716.06;4987750;28;20046;-89
2021/08/30 08:19:06;;;;;;;8.60;3.50;;;;;;;22.13;46.48;99720.97;4997038;28;20081;-84
2021/08/30 08:21:34;;;;;;;5.00;4.22;;;;;;;21.82;46.91;99729.50;4990203;28;20130;-86
2021/08/30 08:24:03;;;;;;;13.35;4.53;;;;;;;21.93;46.68;99734.50;4988576;28;20048;-86
2021/08/30 08:26:30;;;;;;;4.20;3.10;;;;;;;22.35;45.41;99735.44;4989680;28;20154;-90
2021/08/30 08:28:57;;;;;;;7.10;3.42;;;;;;;22.25;45.56;99726.78;4988235;28;20042;-89
2021/08/30 08:31:23;;;;;;;7.80;4.05;;;;;;;22.43;45.36;99720.34;4989997;28;20047;-89
2021/08/30 08:33:50;;;;;;;5.97;2.88;;;;;;;22.52;44.70;99720.34;4989507;28;20038;-90
2021/08/30 08:36:18;;;;;;;8.05;3.05;;;;;;;22.97;43.68;99719.84;4990783;28;20042;-89
2021/08/30 08:38:44;;;;;;;3.80;2.95;;;;;;;23.16;43.10;99718.63;4989044;28;20101;-93
2021/08/30 08:41:11;;;;;;;6.60;2.60;;;;;;;22.64;43.67;99724.34;4994413;28;20038;-91
2021/08/30 08:43:39;;;;;;;7.55;3.22;;;;;;;22.99;42.84;99723.97;4987918;28;20609;-91
2021/08/30 08:46:06;;;;;;;5.03;2.00;;;;;;;23.04;42.76;99719.97;4989434;28;20089;-90
2021/08/30 08:48:34;;;;;;;5.78;1.95;;;;;;;23.29;42.27;99720.75;4992635;28;20045;-91
2021/08/30 08:51:01;;;;;;;3.22;1.95;;;;;;;23.58;41.34;99722.78;4991269;28;20042;-89
2021/08/30 08:53:28;;;;;;;3.58;2.40;;;;;;;22.73;42.95;99731.28;4990979;28;20042;-91
2021/08/30 08:55:55;;;;;;;4.30;2.20;;;;;;;22.92;42.16;99730.97;4992439;28;20046;-91
2021/08/30 08:58:22;;;;;;;4.50;1.63;;;;;;;23.07;42.13;99725.81;4993324;28;20046;-89
2021/08/30 09:01:03;;;;;;;6.03;2.67;;;;;;;22.00;45.58;99736.50;4994027;28;20034;-89
2021/08/30 09:03:32;;;;;;;3.95;2.60;;;;;;;22.28;45.33;99732.63;4992998;28;20074;-91
2021/08/30 09:06:02;;;;;;;4.57;2.45;;;;;;;22.62;44.44;99732.44;4991426;28;20061;-89
2021/08/30 09:08:33;;;;;;;16.38;3.63;;;;;;;22.34;45.55;99739.91;4989294;28;20355;-89
2021/08/30 09:11:00;;;;;;;5.00;2.92;;;;;;;22.20;46.07;99732.59;4989539;28;20046;-90
2021/08/30 09:13:31;;;;;;;4.20;2.85;;;;;;;22.21;46.23;99735.09;4994981;28;20085;-91
2021/08/30 09:15:59;;;;;;;5.65;2.90;;;;;;;22.17;46.79;99732.94;4993012;28;20088;-92
2021/08/30 09:18:30;;;;;;;9.45;3.20;;;;;;;21.68;48.01;99730.97;4988376;28;20047;-90
2021/08/30 09:21:10;;;;;;;6.10;2.47;;;;;;;22.12;46.53;99740.56;4992527;28;20038;-90
2021/08/30 09:23:40;;;;;;;5.38;2.60;;;;;;;23.21;44.05;99734.88;4995170;28;20386;-90
2021/08/30 09:26:13;;;;;;;3.53;2.53;;;;;;;22.46;45.19;99740.41;4986782;28;20047;-90
2021/08/30 09:28:41;;;;;;;4.18;3.45;;;;;;;22.67;44.88;99742.59;4992018;28;20081;-91
2021/08/30 09:31:09;;;;;;;3.55;2.60;;;;;;;23.19;43.44;99739.56;4988949;28;20042;-91
2021/08/30 09:33:47;;;;;;;4.47;2.83;;;;;;;23.68;42.56;99739.41;4992203;28;20069;-91
2021/08/30 09:36:16;;;;;;;2.97;2.10;;;;;;;24.42;41.22;99732.66;4991305;28;20039;-92
2021/08/30 09:38:43;;;;;;;3.30;2.08;;;;;;;23.66;41.58;99742.25;4989152;28;20379;-92
2021/08/30 09:41:11;;;;;;;7.30;2.25;;;;;;;23.91;41.44;99734.13;4992150;28;20476;-90
2021/08/30 09:43:38;;;;;;;4.57;2.10;;;;;;;23.46;41.60;99733.81;4993416;28;20042;-91
2021/08/30 09:46:08;;;;;;;3.63;2.30;;;;;;;24.20;41.02;99730.81;4991264;28;20062;-91
2021/08/30 09:48:35;;;;;;;7.97;3.25;;;;;;;23.84;41.00;99736.66;4991718;28;20078;-91
2021/08/30 09:51:05;;;;;;;5.82;2.65;;;;;;;24.92;38.92;99728.53;4990931;28;20052;-92
2021/08/30 09:53:34;;;;;;;2.30;2.10;;;;;;;24.14;40.36;99723.53;4991422;28;20409;-91
2021/08/30 09:56:02;;;;;;;4.40;1.98;;;;;;;24.45;37.58;99727.00;4989269;28;20050;-91
2021/08/30 09:58:30;;;;;;;2.72;1.60;;;;;;;23.43;40.05;99717.34;4992274;28;20097;-91
2021/08/30 10:01:01;;;;;;;2.20;2.00;;;;;;;24.54;38.66;99719.72;4986625;28;20034;-89
2021/08/30 10:03:38;;;;;;;2.42;1.98;;;;;;;24.27;40.00;99721.91;4988934;28;20034;-91
2021/08/30 10:06:06;;;;;;;2.47;2.20;;;;;;;24.66;39.26;99722.78;4992364;28;20056;-92
2021/08/30 10:08:37;;;;;;;1.95;1.75;;;;;;;24.21;39.35;99719.97;4992109;28;20485;-91
2021/08/30 10:11:04;;;;;;;1.67;1.42;;;;;;;24.29;38.60;99719.91;4992904;28;20038;-93
2021/08/30 10:13:33;;;;;;;2.05;1.35;;;;;;;24.02;39.75;99725.75;4990516;28;20085;-91
2021/08/30 10:16:03;;;;;;;2.88;1.90;;;;;;;24.27;39.74;99721.91;4993143;28;20985;-91
2021/08/30 10:18:30;;;;;;;2.97;1.98;;;;;;;24.37;39.34;99713.72;4991975;28;20105;-91
2021/08/30 10:20:57;;;;;;;1.70;1.42;;;;;;;24.89;39.07;99712.09;4993297;28;20065;-94
2021/08/30 10:23:35;;;;;;;3.90;1.50;;;;;;;24.12;40.16;99713.03;4993001;28;20214;-93
2021/08/30 10:26:04;;;;;;;2.08;1.77;;;;;;;23.98;39.79;99708.47;4993056;28;20050;-89
2021/08/30 10:28:39;;;;;;;3.05;1.75;;;;;;;23.74;39.96;99706.78;4992989;28;20109;-90
2021/08/30 10:31:22;;;;;;;3.35;1.42;;;;;;;24.14;39.85;99707.53;4992978;28;20042;-92
2021/08/30 10:33:54;;;;;;;1.85;1.55;;;;;;;23.26;40.89;99711.28;4992782;28;20038;-92
2021/08/30 10:36:24;;;;;;;5.00;1.70;;;;;;;23.48;40.65;99713.19;4990330;28;20054;-90
2021/08/30 10:39:03;;;;;;;6.45;2.25;;;;;;;23.59;40.37;99713.81;4994173;28;20046;-89
2021/08/30 10:41:35;;;;;;;3.25;1.60;;;;;;;23.58;41.02;99717.47;4990265;28;20400;-90
2021/08/30 10:44:14;;;;;;;2.00;1.80;;;;;;;23.72;41.38;99714.94;4992467;28;20105;-91
2021/08/30 10:46:54;;;;;;;5.55;2.08;;;;;;;23.37;42.03;99715.38;4990887;28;20500;-92
2021/08/30 10:49:27;;;;;;;6.88;2.88;;;;;;;23.19;41.96;99705.81;4992927;28;20048;-89
2021/08/30 10:52:15;;;;;;;1.92;1.83;;;;;;;23.29;41.30;99700.31;4993111;28;20038;-93
2021/08/30 10:54:53;;;;;;;2.92;2.00;;;;;;;23.78;40.61;99708.09;4996759;28;20066;-94
2021/08/30 10:57:39;;;;;;;2.13;1.85;;;;;;;24.36;39.46;99706.75;4990804;28;20062;-95
2021/08/30 11:00:08;;;;;;;4.78;2.20;;;;;;;24.81;38.63;99710.31;4988122;28;20464;-90
2021/08/30 11:02:36;;;;;;;2.03;1.67;;;;;;;24.65;37.99;99694.50;4990949;28;20560;-95
2021/08/30 11:05:08;;;;;;;14.40;2.50;;;;;;;25.30;37.19;99688.47;4980113;28;20110;-96
2021/08/30 11:07:39;;;;;;;1.92;1.52;;;;;;;24.81;36.88;99694.34;5001010;28;20065;-96
2021/08/30 11:10:07;;;;;;;2.08;1.80;;;;;;;24.76;37.97;99691.38;4994111;28;20043;-90
2021/08/30 11:12:40;;;;;;;9.15;2.20;;;;;;;24.60;37.77;99697.69;4994539;28;20073;-94
2021/08/30 11:15:07;;;;;;;2.90;2.00;;;;;;;24.96;37.21;99695.19;4999042;28;20045;-95
2021/08/30 11:17:36;;;;;;;5.25;1.88;;;;;;;25.63;36.74;99688.09;5000141;28;20038;-96
2021/08/30 11:20:04;;;;;;;4.20;1.83;;;;;;;26.02;36.87;99688.53;4997635;28;20046;-91
2021/08/30 11:22:32;;;;;;;2.42;1.50;;;;;;;25.81;34.66;99677.84;5000554;28;20054;-96
2021/08/30 11:25:00;;;;;;;1.52;1.30;;;;;;;25.69;35.64;99679.34;4997181;28;20026;-92
2021/08/30 11:27:33;;;;;;;2.08;1.52;;;;;;;26.12;33.95;99677.56;4993947;28;20405;-95
2021/08/30 11:30:08;;;;;;;1.53;1.40;;;;;;;25.68;35.07;99681.19;4997847;28;20035;-90
2021/08/30 11:32:37;;;;;;;5.95;1.63;;;;;;;25.80;34.92;99674.34;4993532;28;20045;-92
2021/08/30 11:35:06;;;;;;;1.70;1.25;;;;;;;25.93;35.07;99670.97;4991995;28;20047;-92
2021/08/30 11:37:34;;;;;;;2.30;2.10;;;;;;;25.24;36.56;99670.56;4993539;28;20085;-88
2021/08/30 11:40:05;;;;;;;5.82;2.08;;;;;;;25.61;36.16;99686.41;4993463;28;20034;-89
2021/08/30 11:42:33;;;;;;;2.03;1.70;;;;;;;24.94;37.32;99672.41;4991757;28;20073;-95
2021/08/30 11:45:03;;;;;;;2.95;1.85;;;;;;;24.95;37.32;99677.53;4991258;28;20050;-91
2021/08/30 11:47:31;;;;;;;4.03;1.50;;;;;;;25.71;35.65;99666.63;4988232;28;20043;-92